Time;durP1;ratioP1;P1;durP2;ratioP2;P2;SDS_P1;SDS_P2;PMS_P1;PMS_P2;Temp;Humidity;BMP_temperature;BMP_pressure;BME280_temperature;BME280_humidity;BME280_pressure;Samples;Min_cycle;Max_cycle;Signal;HPM_P1;HPM_P2
2023/04/02 00:00:33;;;;;;;0.80;0.80;;;-4.40;99.90;;;;;;4977751;28;20204;-79
2023/04/02 00:02:59;;;;;;;0.80;0.80;;;-4.40;99.90;;;;;;4977697;28;20566;-79
2023/04/02 00:05:30;;;;;;;0.70;0.70;;;-4.50;99.90;;;;;;4994028;28;20286;-79
2023/04/02 00:08:02;;;;;;;0.80;0.80;;;-4.50;99.90;;;;;;4993935;28;20234;-79
2023/04/02 00:10:51;;;;;;;0.70;0.70;;;-4.60;99.90;;;;;;4996106;28;20195;-78
2023/04/02 00:13:17;;;;;;;0.80;0.80;;;-4.60;99.90;;;;;;4993697;28;20553;-78
2023/04/02 00:15:46;;;;;;;0.90;0.90;;;-4.70;99.90;;;;;;4993547;28;20271;-78
2023/04/02 00:18:15;;;;;;;0.80;0.80;;;-4.70;99.90;;;;;;4993573;28;20196;-77
2023/04/02 00:20:47;;;;;;;0.73;0.73;;;-4.70;99.90;;;;;;4994594;28;20605;-78
2023/04/02 00:23:14;;;;;;;0.70;0.70;;;-4.70;99.90;;;;;;4994803;28;20663;-78
2023/04/02 00:25:44;;;;;;;0.80;0.80;;;-4.80;99.90;;;;;;4989762;28;20849;-77
2023/04/02 00:28:15;;;;;;;0.75;0.75;;;-4.80;99.90;;;;;;4973974;28;20291;-75
2023/04/02 00:30:59;;;;;;;0.70;0.70;;;-4.80;99.90;;;;;;4975059;28;20247;-75
2023/04/02 00:33:29;;;;;;;0.70;0.70;;;-4.90;99.90;;;;;;4989754;28;20204;-75
2023/04/02 00:35:55;;;;;;;0.70;0.70;;;-4.90;99.90;;;;;;4973942;28;20239;-75
2023/04/02 00:38:30;;;;;;;0.70;0.70;;;-4.90;99.90;;;;;;4974398;28;20656;-75
2023/04/02 00:41:00;;;;;;;0.70;0.70;;;-4.90;99.90;;;;;;4973698;28;20216;-75
2023/04/02 00:43:29;;;;;;;0.70;0.70;;;-5.00;99.90;;;;;;4973481;28;20686;-75
2023/04/02 00:45:57;;;;;;;0.73;0.73;;;-5.00;99.90;;;;;;4973654;28;20489;-76
2023/04/02 00:48:32;;;;;;;0.70;0.70;;;-5.10;99.90;;;;;;4986262;28;20230;-76
2023/04/02 00:51:22;;;;;;;0.80;0.80;;;-5.10;99.90;;;;;;4976832;28;20198;-76
2023/04/02 00:53:51;;;;;;;0.70;0.70;;;-5.10;99.90;;;;;;4994286;28;20276;-76
2023/04/02 00:56:26;;;;;;;0.77;0.77;;;-5.10;99.90;;;;;;4993907;28;20227;-76
2023/04/02 00:58:55;;;;;;;0.85;0.85;;;-5.20;99.90;;;;;;4993992;28;20202;-76
2023/04/02 01:01:28;;;;;;;0.90;0.90;;;-5.20;99.90;;;;;;4992412;28;20219;-76
2023/04/02 01:04:00;;;;;;;0.80;0.80;;;-5.20;99.90;;;;;;5013721;23;20285;-70
2023/04/02 01:06:33;;;;;;;0.80;0.80;;;-5.10;99.90;;;;;;5013151;28;20202;-71
2023/04/02 01:09:29;;;;;;;0.90;0.90;;;-5.10;99.90;;;;;;4995669;28;20260;-70
2023/04/02 01:12:19;;;;;;;0.70;0.70;;;-5.10;99.90;;;;;;4995660;28;20613;-70
2023/04/02 01:15:15;;;;;;;0.70;0.70;;;-5.10;99.90;;;;;;4995413;28;20199;-70
2023/04/02 01:18:12;;;;;;;0.80;0.80;;;-5.20;99.90;;;;;;5013083;28;20256;-70
2023/04/02 01:21:00;;;;;;;0.70;0.70;;;-5.30;99.90;;;;;;4995353;28;20214;-70
2023/04/02 01:23:29;;;;;;;0.70;0.70;;;-5.30;99.90;;;;;;4995148;28;20199;-70
2023/04/02 01:26:13;;;;;;;0.70;0.70;;;-5.30;99.90;;;;;;5012938;28;20226;-70
2023/04/02 01:28:51;;;;;;;0.80;0.80;;;-5.40;99.90;;;;;;5012719;28;20282;-70
2023/04/02 01:31:19;;;;;;;0.80;0.80;;;-5.40;99.90;;;;;;5012982;28;20210;-70
2023/04/02 01:33:47;;;;;;;0.70;0.70;;;-5.40;99.90;;;;;;5012960;28;20587;-70
2023/04/02 01:36:15;;;;;;;0.70;0.70;;;-5.50;99.90;;;;;;5012687;28;20207;-70
2023/04/02 01:38:55;;;;;;;0.60;0.60;;;-5.40;99.90;;;;;;5012603;28;20203;-70
2023/04/02 01:41:32;;;;;;;0.80;0.80;;;-5.40;99.90;;;;;;5012545;28;20745;-70
2023/04/02 01:44:07;;;;;;;0.80;0.80;;;-5.50;99.90;;;;;;5012544;28;20218;-70
2023/04/02 01:46:37;;;;;;;0.70;0.70;;;-5.50;99.90;;;;;;4994948;28;20245;-70
2023/04/02 01:49:20;;;;;;;0.67;0.67;;;-5.50;99.90;;;;;;5011886;28;20203;-70
2023/04/02 01:51:55;;;;;;;0.80;0.80;;;-5.50;99.90;;;;;;4995132;28;20230;-70
2023/04/02 01:54:22;;;;;;;0.80;0.80;;;-5.50;99.90;;;;;;5012472;28;20709;-70
2023/04/02 01:56:49;;;;;;;0.70;0.70;;;-5.50;99.90;;;;;;4994868;28;20207;-70
2023/04/02 01:59:21;;;;;;;0.90;0.90;;;-5.60;99.90;;;;;;5012455;28;20246;-69
2023/04/02 02:02:08;;;;;;;0.80;0.80;;;-5.60;99.90;;;;;;5025554;28;20214;-70
2023/04/02 02:04:33;;;;;;;0.83;0.83;;;-5.60;99.90;;;;;;5032050;28;20213;-70
2023/04/02 02:07:03;;;;;;;0.90;0.90;;;-5.70;99.90;;;;;;5032290;28;20606;-70
2023/04/02 02:09:33;;;;;;;0.82;0.82;;;-5.70;99.90;;;;;;5031907;28;20343;-70
2023/04/02 02:12:01;;;;;;;0.90;0.90;;;-5.70;99.90;;;;;;5030896;28;20198;-70
2023/04/02 02:14:29;;;;;;;0.90;0.90;;;-5.70;99.90;;;;;;5031932;28;20217;-70
2023/04/02 02:17:00;;;;;;;0.90;0.90;;;-5.70;99.90;;;;;;5032127;28;20228;-69
2023/04/02 02:19:30;;;;;;;0.83;0.83;;;-5.80;99.90;;;;;;4991302;28;20618;-70
2023/04/02 02:22:05;;;;;;;0.80;0.80;;;-5.80;99.90;;;;;;4992764;28;20215;-69
2023/04/02 02:24:34;;;;;;;0.90;0.90;;;-5.80;99.90;;;;;;4993768;28;20226;-70
2023/04/02 02:27:26;;;;;;;0.80;0.80;;;-5.90;99.90;;;;;;4994700;28;20207;-70
2023/04/02 02:29:57;;;;;;;0.90;0.90;;;-5.90;99.90;;;;;;5012432;28;20202;-70
2023/04/02 02:32:28;;;;;;;0.80;0.80;;;-5.90;99.90;;;;;;5012063;28;20191;-70
2023/04/02 02:35:06;;;;;;;0.80;0.80;;;-5.90;99.90;;;;;;5012305;28;20199;-70
2023/04/02 02:37:42;;;;;;;0.90;0.90;;;-6.00;99.90;;;;;;5010741;28;20213;-70
2023/04/02 02:40:26;;;;;;;0.80;0.80;;;-5.90;99.90;;;;;;5010858;28;20625;-70
2023/04/02 02:43:03;;;;;;;0.80;0.80;;;-5.90;99.90;;;;;;5012275;28;20195;-70
2023/04/02 02:45:36;;;;;;;0.87;0.87;;;-6.00;99.90;;;;;;4994340;28;20203;-70
2023/04/02 02:48:07;;;;;;;0.70;0.70;;;-6.00;99.90;;;;;;4993950;28;20657;-70
2023/04/02 02:50:34;;;;;;;0.90;0.90;;;-6.00;99.90;;;;;;4994365;28;20203;-70
2023/04/02 02:53:04;;;;;;;0.80;0.80;;;-6.00;99.90;;;;;;5011931;28;20238;-69
2023/04/02 02:55:33;;;;;;;0.80;0.80;;;-6.10;99.90;;;;;;5010654;28;20670;-70
2023/04/02 02:58:06;;;;;;;0.70;0.70;;;-6.10;99.90;;;;;;5012000;28;20195;-70
2023/04/02 03:00:34;;;;;;;0.80;0.80;;;-6.20;99.90;;;;;;5008345;28;20211;-70
2023/04/02 03:03:04;;;;;;;0.70;0.70;;;-6.20;99.90;;;;;;5015266;28;20676;-70
2023/04/02 03:05:30;;;;;;;0.70;0.70;;;-6.20;99.90;;;;;;5017409;28;20250;-71
2023/04/02 03:07:57;;;;;;;0.80;0.80;;;-6.20;99.90;;;;;;5034062;28;20565;-69
2023/04/02 03:10:23;;;;;;;0.70;0.70;;;-6.20;99.90;;;;;;5016282;28;20214;-70
2023/04/02 03:13:13;;;;;;;0.80;0.80;;;-6.20;99.90;;;;;;5014264;28;20302;-70
2023/04/02 03:15:57;;;;;;;0.90;0.90;;;-6.20;99.90;;;;;;5013929;28;20218;-70
2023/04/02 03:18:43;;;;;;;0.80;0.80;;;-6.20;99.90;;;;;;5013873;28;20198;-70
2023/04/02 03:21:36;;;;;;;0.80;0.80;;;-6.30;99.90;;;;;;5015182;28;20723;-69
2023/04/02 03:24:10;;;;;;;0.80;0.80;;;-6.20;99.90;;;;;;5015281;28;20249;-70
2023/04/02 03:27:08;;;;;;;0.70;0.70;;;-6.30;99.90;;;;;;5014892;28;20194;-70
2023/04/02 03:29:42;;;;;;;0.80;0.80;;;-6.30;99.90;;;;;;5013807;28;20653;-70
2023/04/02 03:32:19;;;;;;;0.60;0.60;;;-6.30;99.90;;;;;;4997628;28;20332;-70
2023/04/02 03:34:58;;;;;;;0.70;0.70;;;-6.30;99.90;;;;;;4997519;28;20297;-70
2023/04/02 03:37:39;;;;;;;0.80;0.80;;;-6.40;99.90;;;;;;5014758;28;20206;-69
2023/04/02 03:40:30;;;;;;;0.80;0.80;;;-6.40;99.90;;;;;;5014969;28;20214;-69
2023/04/02 03:43:14;;;;;;;0.90;0.90;;;-6.30;99.90;;;;;;4996930;28;20214;-70
2023/04/02 03:45:44;;;;;;;0.93;0.93;;;-6.20;99.90;;;;;;5014833;28;20684;-70
2023/04/02 03:48:51;;;;;;;0.90;0.90;;;-6.00;99.90;;;;;;5014629;28;20266;-69
2023/04/02 03:51:31;;;;;;;0.87;0.87;;;-5.80;99.90;;;;;;5013489;28;20206;-69
2023/04/02 03:53:57;;;;;;;0.80;0.80;;;-5.60;99.90;;;;;;5014755;28;20195;-69
2023/04/02 03:56:30;;;;;;;0.73;0.73;;;-5.50;99.90;;;;;;5014450;28;20199;-70
2023/04/02 03:59:26;;;;;;;0.80;0.80;;;-5.40;99.90;;;;;;5014554;28;20621;-70
2023/04/02 04:02:07;;;;;;;0.80;0.80;;;-5.40;99.90;;;;;;5014371;28;20300;-70
2023/04/02 04:04:38;;;;;;;0.90;0.90;;;-5.50;99.90;;;;;;5014440;28;20215;-70
2023/04/02 04:07:10;;;;;;;0.80;0.80;;;-5.60;99.90;;;;;;4996992;28;20205;-70
2023/04/02 04:09:38;;;;;;;0.83;0.83;;;-5.70;99.90;;;;;;5012815;28;20564;-70
2023/04/02 04:12:29;;;;;;;0.80;0.80;;;-5.70;99.90;;;;;;5012518;28;20199;-70
2023/04/02 04:15:22;;;;;;;0.83;0.83;;;-5.80;99.90;;;;;;5014396;28;20198;-70
2023/04/02 04:18:00;;;;;;;0.80;0.80;;;-5.80;99.90;;;;;;5015887;28;20270;-70
2023/04/02 04:20:46;;;;;;;0.77;0.77;;;-5.80;99.90;;;;;;5012992;28;20211;-70
2023/04/02 04:23:24;;;;;;;0.90;0.90;;;-5.80;99.90;;;;;;5009987;28;20221;-70
2023/04/02 04:25:57;;;;;;;0.80;0.80;;;-5.80;99.90;;;;;;4992954;28;20195;-70
2023/04/02 04:28:37;;;;;;;0.80;0.80;;;-5.80;99.90;;;;;;4993924;28;20545;-72
2023/04/02 04:31:25;;;;;;;0.90;0.90;;;-5.80;99.90;;;;;;5014073;28;20195;-72
2023/04/02 04:34:04;;;;;;;0.80;0.80;;;-5.80;99.90;;;;;;5013958;28;20206;-73
2023/04/02 04:36:46;;;;;;;0.80;0.80;;;-5.70;99.90;;;;;;4996033;28;20614;-73
2023/04/02 04:39:17;;;;;;;0.80;0.80;;;-5.60;99.90;;;;;;4996259;28;20209;-73
2023/04/02 04:41:45;;;;;;;0.70;0.70;;;-5.60;99.90;;;;;;5012356;28;20210;-73
2023/04/02 04:44:22;;;;;;;0.70;0.70;;;-5.60;99.90;;;;;;5011048;28;20676;-73
2023/04/02 04:47:09;;;;;;;0.70;0.70;;;-5.50;99.90;;;;;;4992903;28;20275;-73
2023/04/02 04:49:48;;;;;;;0.70;0.70;;;-5.50;99.90;;;;;;4992673;28;20202;-73
2023/04/02 04:52:22;;;;;;;0.80;0.80;;;-5.50;99.90;;;;;;4992869;28;20662;-73
2023/04/02 04:54:48;;;;;;;0.77;0.77;;;-5.50;99.90;;;;;;4995044;28;20191;-73
2023/04/02 04:57:28;;;;;;;0.85;0.85;;;-5.50;99.90;;;;;;4994298;28;20720;-74
2023/04/02 05:00:17;;;;;;;0.80;0.80;;;-5.50;99.90;;;;;;4992570;28;20294;-73
2023/04/02 05:03:03;;;;;;;0.77;0.77;;;-5.50;99.90;;;;;;4993584;28;20227;-74
2023/04/02 05:05:36;;;;;;;0.80;0.80;;;-5.40;99.90;;;;;;5011967;28;20202;-73
2023/04/02 05:08:19;;;;;;;0.80;0.80;;;-5.40;99.90;;;;;;5011995;28;20281;-74
2023/04/02 05:11:06;;;;;;;0.80;0.80;;;-5.30;99.90;;;;;;4995502;28;20640;-74
2023/04/02 05:13:59;;;;;;;0.93;0.93;;;-5.20;99.90;;;;;;4995225;28;20238;-73
2023/04/02 05:17:06;;;;;;;0.70;0.70;;;-5.10;99.90;;;;;;5013305;28;20666;-74
2023/04/02 05:19:46;;;;;;;0.80;0.80;;;-5.10;99.90;;;;;;4971639;28;20683;-74
2023/04/02 05:22:49;;;;;;;0.70;0.70;;;-4.90;99.90;;;;;;4970745;28;20314;-74
2023/04/02 05:25:21;;;;;;;0.90;0.90;;;-4.70;99.90;;;;;;4964232;28;20205;-74
2023/04/02 05:28:04;;;;;;;0.77;0.77;;;-4.60;99.90;;;;;;4952660;29;20295;-74
2023/04/02 05:30:45;;;;;;;0.90;0.90;;;-4.50;99.90;;;;;;4952233;28;20675;-74
2023/04/02 05:33:26;;;;;;;0.80;0.80;;;-4.30;99.90;;;;;;4952297;28;20236;-74
2023/04/02 05:36:01;;;;;;;0.70;0.70;;;-4.20;99.90;;;;;;4952491;29;20569;-73
2023/04/02 05:38:29;;;;;;;0.80;0.80;;;-4.10;99.90;;;;;;4952233;29;20204;-74
2023/04/02 05:41:18;;;;;;;0.80;0.80;;;-4.00;99.90;;;;;;4948953;29;20681;-74
2023/04/02 05:43:47;;;;;;;0.80;0.80;;;-3.80;99.90;;;;;;4930510;29;20209;-74
2023/04/02 05:46:28;;;;;;;0.80;0.80;;;-3.70;99.90;;;;;;4917196;29;20206;-73
2023/04/02 05:48:58;;;;;;;0.90;0.90;;;-3.40;99.90;;;;;;4917551;29;20731;-74
2023/04/02 05:51:40;;;;;;;0.80;0.80;;;-3.20;99.90;;;;;;4948739;29;20205;-74
2023/04/02 05:54:23;;;;;;;0.73;0.73;;;-2.90;99.90;;;;;;4960699;28;20211;-74
2023/04/02 05:56:55;;;;;;;0.70;0.70;;;-2.80;99.90;;;;;;5008075;28;20264;-74
2023/04/02 05:59:45;;;;;;;0.73;0.73;;;-2.60;99.90;;;;;;4991427;28;20666;-73
2023/04/02 06:02:26;;;;;;;1.10;1.10;;;-2.40;99.90;;;;;;4991359;28;20215;-74
2023/04/02 06:05:10;;;;;;;0.90;0.90;;;-2.10;99.90;;;;;;4992994;28;20207;-74
2023/04/02 06:08:02;;;;;;;7.38;1.55;;;-2.00;99.90;;;;;;4991498;28;20286;-73
2023/04/02 06:10:33;;;;;;;0.90;0.90;;;-1.80;99.90;;;;;;4998203;28;20285;-74
2023/04/02 06:13:07;;;;;;;1.00;1.00;;;-1.70;99.90;;;;;;5011438;28;20219;-73
2023/04/02 06:15:35;;;;;;;0.73;0.73;;;-1.50;99.90;;;;;;5010891;28;20238;-73
2023/04/02 06:18:20;;;;;;;2.45;1.92;;;-1.40;99.90;;;;;;5012465;28;20206;-74
2023/04/02 06:20:46;;;;;;;0.70;0.70;;;-1.20;99.90;;;;;;5011008;28;20666;-74
2023/04/02 06:23:18;;;;;;;0.70;0.70;;;-1.10;99.90;;;;;;5011045;28;20209;-74
2023/04/02 06:26:14;;;;;;;0.70;0.70;;;-1.00;99.90;;;;;;5002696;28;20191;-73
2023/04/02 06:28:46;;;;;;;0.70;0.70;;;-0.90;99.90;;;;;;4979249;28;20302;-74
2023/04/02 06:31:50;;;;;;;0.70;0.70;;;-0.80;99.90;;;;;;5012193;28;20203;-74
2023/04/02 06:34:26;;;;;;;1.25;1.15;;;-0.60;99.90;;;;;;4977523;28;20344;-73
2023/04/02 06:36:58;;;;;;;0.88;0.88;;;-0.50;99.90;;;;;;4994160;28;20206;-74
2023/04/02 06:39:29;;;;;;;0.98;0.98;;;-0.40;99.90;;;;;;4996328;28;20314;-73
2023/04/02 06:43:00;;;;;;;;;;;;;;;;;;;;;
2023/04/02 06:45:56;;;;;;;0.93;0.93;;;-0.20;99.90;;;;;;4989992;28;20206;-74
2023/04/02 06:48:26;;;;;;;0.90;0.90;;;-0.10;99.90;;;;;;4997717;28;20219;-74
2023/04/02 06:51:15;;;;;;;0.50;0.50;;;0.00;99.90;;;;;;4996573;28;20278;-75
2023/04/02 06:53:47;;;;;;;0.60;0.60;;;0.20;99.90;;;;;;4996136;28;20192;-73
2023/04/02 06:56:37;;;;;;;1.65;1.13;;;0.20;99.90;;;;;;5005127;28;20574;-74
2023/04/02 06:59:06;;;;;;;0.50;0.50;;;0.30;99.90;;;;;;5015596;28;20217;-74
2023/04/02 07:01:47;;;;;;;1.27;1.17;;;0.40;99.90;;;;;;5015153;28;20222;-75
2023/04/02 07:04:14;;;;;;;0.90;0.90;;;0.40;99.90;;;;;;5014102;28;20226;-75
2023/04/02 07:06:40;;;;;;;1.45;1.35;;;0.60;99.90;;;;;;5014157;28;20294;-74
2023/04/02 07:09:05;;;;;;;0.70;0.70;;;0.60;99.90;;;;;;5015620;28;20313;-74
2023/04/02 07:11:31;;;;;;;0.70;0.70;;;0.70;99.90;;;;;;5015421;28;20200;-75
2023/04/02 07:13:57;;;;;;;0.50;0.50;;;0.80;99.90;;;;;;5015622;28;20206;-74
2023/04/02 07:16:25;;;;;;;0.70;0.70;;;0.90;99.90;;;;;;5015264;28;20250;-74
2023/04/02 07:18:52;;;;;;;0.70;0.70;;;1.00;99.90;;;;;;5015566;28;20206;-75
2023/04/02 07:21:21;;;;;;;0.70;0.70;;;1.10;99.90;;;;;;5015404;28;20209;-75
2023/04/02 07:23:47;;;;;;;0.70;0.70;;;1.20;99.90;;;;;;5014087;28;20191;-75
2023/04/02 07:26:19;;;;;;;0.90;0.90;;;1.30;99.90;;;;;;5002066;28;20213;-75
2023/04/02 07:28:48;;;;;;;1.38;1.27;;;1.30;99.90;;;;;;5013158;28;20603;-75
2023/04/02 07:31:25;;;;;;;1.00;1.00;;;1.40;99.90;;;;;;5013997;28;20202;-75
2023/04/02 07:33:54;;;;;;;0.70;0.70;;;1.50;99.90;;;;;;5004929;28;20209;-75
2023/04/02 07:36:23;;;;;;;0.60;0.60;;;1.60;99.90;;;;;;4995528;28;20259;-75
2023/04/02 07:38:52;;;;;;;0.60;0.60;;;1.70;99.90;;;;;;4995588;28;20203;-74
2023/04/02 07:41:22;;;;;;;0.70;0.70;;;1.80;99.90;;;;;;4994058;28;20303;-74
2023/04/02 07:43:47;;;;;;;0.63;0.63;;;1.90;99.90;;;;;;4995574;28;20191;-75
2023/04/02 07:46:16;;;;;;;0.80;0.80;;;2.00;99.90;;;;;;4995442;28;20195;-74
2023/04/02 07:48:43;;;;;;;0.73;0.73;;;2.10;99.90;;;;;;4993972;28;20229;-75
2023/04/02 07:51:20;;;;;;;0.80;0.80;;;2.20;99.90;;;;;;4995429;28;20192;-75
2023/04/02 07:53:55;;;;;;;0.90;0.90;;;2.40;99.90;;;;;;5013362;28;20385;-75
2023/04/02 07:56:23;;;;;;;0.52;0.52;;;2.60;99.90;;;;;;4996831;28;20206;-75
2023/04/02 07:58:52;;;;;;;0.70;0.70;;;2.90;99.90;;;;;;5014870;28;20195;-75
2023/04/02 08:01:22;;;;;;;0.80;0.80;;;3.00;99.90;;;;;;5014590;28;20686;-75
2023/04/02 08:03:49;;;;;;;0.80;0.80;;;3.10;99.90;;;;;;5014469;28;20226;-76
2023/04/02 08:06:15;;;;;;;0.70;0.70;;;3.30;99.90;;;;;;5012778;28;20210;-74
2023/04/02 08:08:41;;;;;;;0.80;0.80;;;3.60;99.90;;;;;;5014426;28;20194;-75
2023/04/02 08:11:07;;;;;;;0.73;0.73;;;3.70;99.90;;;;;;5013294;28;20229;-75
2023/04/02 08:13:33;;;;;;;0.55;0.55;;;3.80;99.90;;;;;;5012904;28;20674;-75
2023/04/02 08:16:00;;;;;;;0.75;0.75;;;3.80;99.90;;;;;;4997012;28;20213;-75
2023/04/02 08:18:26;;;;;;;0.60;0.60;;;3.90;99.90;;;;;;5014252;28;20290;-75
2023/04/02 08:20:52;;;;;;;0.70;0.70;;;4.20;99.90;;;;;;5013127;28;20692;-75
2023/04/02 08:23:18;;;;;;;0.70;0.70;;;4.40;99.90;;;;;;5013307;28;20195;-76
2023/04/02 08:25:45;;;;;;;0.73;0.73;;;4.50;99.90;;;;;;4996374;28;20203;-75
2023/04/02 08:28:13;;;;;;;0.70;0.70;;;4.80;99.90;;;;;;5014235;28;20187;-75
2023/04/02 08:30:39;;;;;;;0.80;0.80;;;4.80;99.90;;;;;;5013986;28;20654;-76
2023/04/02 08:33:06;;;;;;;0.70;0.70;;;5.00;99.90;;;;;;5014293;28;20190;-75
2023/04/02 08:35:31;;;;;;;0.80;0.80;;;5.20;99.90;;;;;;5014104;28;20253;-75
2023/04/02 08:37:57;;;;;;;0.70;0.70;;;5.20;99.90;;;;;;5014290;28;20199;-75
2023/04/02 08:40:38;;;;;;;0.63;0.63;;;5.30;99.90;;;;;;5013791;28;20293;-75
2023/04/02 08:43:10;;;;;;;0.70;0.70;;;5.30;99.90;;;;;;5012796;28;20695;-75
2023/04/02 08:46:14;;;;;;;0.70;0.70;;;5.40;99.90;;;;;;5013941;28;20278;-77
2023/04/02 08:48:47;;;;;;;0.60;0.60;;;5.50;99.90;;;;;;5014619;28;20659;-76
2023/04/02 08:51:29;;;;;;;0.60;0.60;;;5.80;99.90;;;;;;4999676;28;20681;-76
2023/04/02 08:54:28;;;;;;;0.80;0.80;;;5.90;99.90;;;;;;4998527;28;20606;-76
2023/04/02 08:57:28;;;;;;;0.70;0.70;;;6.40;99.90;;;;;;5017078;28;20191;-77
2023/04/02 09:00:35;;;;;;;0.55;0.55;;;6.90;99.90;;;;;;5005537;28;20195;-77
2023/04/02 09:03:40;;;;;;;2.60;1.60;;;7.30;99.90;;;;;;5013793;28;20234;-77
2023/04/02 09:06:09;;;;;;;0.70;0.70;;;7.70;99.90;;;;;;5013657;28;20203;-75
2023/04/02 09:08:35;;;;;;;0.60;0.60;;;7.90;99.90;;;;;;5014820;28;20191;-76
2023/04/02 09:11:20;;;;;;;0.60;0.60;;;8.10;99.90;;;;;;5014141;28;20203;-75
2023/04/02 09:13:51;;;;;;;0.60;0.60;;;8.30;99.90;;;;;;5012230;28;20631;-76
2023/04/02 09:16:26;;;;;;;0.70;0.70;;;8.40;99.90;;;;;;5013300;28;20234;-76
2023/04/02 09:18:53;;;;;;;0.63;0.63;;;8.40;99.40;;;;;;4996305;28;20215;-76
2023/04/02 09:21:28;;;;;;;0.60;0.60;;;8.50;98.90;;;;;;5011973;28;20585;-76
2023/04/02 09:24:45;;;;;;;0.60;0.60;;;8.50;98.50;;;;;;5013643;28;20565;-76
2023/04/02 09:27:25;;;;;;;0.60;0.60;;;8.40;96.90;;;;;;4916661;29;20202;-76
2023/04/02 09:30:32;;;;;;;0.60;0.60;;;8.50;96.50;;;;;;5027625;28;20203;-76
2023/04/02 09:33:44;;;;;;;0.50;0.50;;;8.60;96.40;;;;;;5015254;28;20214;-76
2023/04/02 09:36:36;;;;;;;0.90;0.90;;;8.60;95.40;;;;;;4944903;28;20243;-76
2023/04/02 09:39:16;;;;;;;0.60;0.60;;;8.90;97.30;;;;;;4997741;28;20223;-75
2023/04/02 09:41:42;;;;;;;0.60;0.60;;;8.80;94.90;;;;;;5012867;28;20207;-75
2023/04/02 09:44:29;;;;;;;0.60;0.60;;;8.90;95.40;;;;;;5012958;28;20238;-76
2023/04/02 09:47:21;;;;;;;0.60;0.60;;;9.50;96.30;;;;;;4995321;28;20701;-76
2023/04/02 09:49:47;;;;;;;0.50;0.50;;;9.90;94.30;;;;;;4993261;28;20234;-75
2023/04/02 09:52:27;;;;;;;1.20;0.82;;;9.90;92.80;;;;;;4993150;28;20218;-77
2023/04/02 09:55:17;;;;;;;0.60;0.60;;;9.70;93.00;;;;;;4993821;28;20611;-75
2023/04/02 09:57:43;;;;;;;0.50;0.50;;;9.60;92.20;;;;;;5012520;28;20203;-75
2023/04/02 10:00:16;;;;;;;0.60;0.60;;;9.40;93.60;;;;;;5012502;28;20221;-76
2023/04/02 10:02:43;;;;;;;0.60;0.60;;;9.40;93.40;;;;;;5010837;28;20815;-75
2023/04/02 10:05:36;;;;;;;0.50;0.50;;;9.40;93.30;;;;;;5011642;28;20205;-76
2023/04/02 10:11:35;;;;;;;0.60;0.60;;;10.30;93.90;;;;;;4974132;28;20219;-76
2023/04/02 10:14:08;;;;;;;0.57;0.57;;;10.70;92.10;;;;;;4971401;28;20563;-76
2023/04/02 10:16:47;;;;;;;0.50;0.50;;;10.90;91.10;;;;;;4971182;28;20203;-76
2023/04/02 10:19:25;;;;;;;1.38;1.27;;;10.90;91.60;;;;;;4953603;28;20288;-76
2023/04/02 10:21:52;;;;;;;0.60;0.60;;;10.80;88.60;;;;;;4968036;28;20212;-75
2023/04/02 10:24:18;;;;;;;0.60;0.60;;;10.50;84.60;;;;;;4936654;29;20276;-75
2023/04/02 10:27:00;;;;;;;0.50;0.50;;;10.30;91.50;;;;;;4951630;28;20213;-75
2023/04/02 10:29:47;;;;;;;0.80;0.80;;;10.30;90.50;;;;;;4967245;28;20410;-76
2023/04/02 10:32:21;;;;;;;0.50;0.50;;;10.60;91.00;;;;;;4951832;28;20663;-76
2023/04/02 10:34:57;;;;;;;0.50;0.50;;;10.80;87.70;;;;;;4952390;28;20201;-78
2023/04/02 10:37:45;;;;;;;0.80;0.80;;;11.10;90.30;;;;;;4952247;29;20205;-77
2023/04/02 10:40:25;;;;;;;0.50;0.50;;;11.40;87.40;;;;;;4953934;29;20197;-77
2023/04/02 10:43:12;;;;;;;0.50;0.50;;;11.30;85.10;;;;;;4952913;29;20216;-75
2023/04/02 10:45:37;;;;;;;0.60;0.60;;;11.50;83.10;;;;;;4996929;28;20711;-77
2023/04/02 10:48:21;;;;;;;1.08;0.98;;;11.20;78.90;;;;;;5012452;28;20191;-75
2023/04/02 10:51:07;;;;;;;0.60;0.60;;;11.50;84.50;;;;;;5013668;28;20650;-74
2023/04/02 10:53:49;;;;;;;0.50;0.50;;;11.70;84.50;;;;;;4991544;28;20253;-76
2023/04/02 10:56:15;;;;;;;0.50;0.50;;;12.20;80.40;;;;;;4975464;28;20239;-74
2023/04/02 10:59:08;;;;;;;0.50;0.50;;;12.20;76.60;;;;;;4991136;28;20234;-74
2023/04/02 11:01:35;;;;;;;0.50;0.50;;;12.40;76.70;;;;;;4974760;28;20216;-74
2023/04/02 11:04:13;;;;;;;0.47;0.47;;;12.70;75.10;;;;;;4992530;28;20223;-74
2023/04/02 11:06:52;;;;;;;0.45;0.45;;;12.40;75.70;;;;;;4992457;28;20316;-75
2023/04/02 11:09:26;;;;;;;0.50;0.50;;;12.50;74.70;;;;;;4975105;28;20200;-75
2023/04/02 11:12:33;;;;;;;0.47;0.47;;;12.20;75.40;;;;;;4993144;28;20786;-75
2023/04/02 11:15:13;;;;;;;0.40;0.40;;;12.30;78.10;;;;;;5009376;28;20256;-74
2023/04/02 11:17:39;;;;;;;0.50;0.50;;;12.30;75.60;;;;;;4996864;28;20550;-74
2023/04/02 11:20:53;;;;;;;0.50;0.50;;;12.30;76.30;;;;;;5012053;28;20209;-74
2023/04/02 11:23:19;;;;;;;0.50;0.50;;;12.40;73.80;;;;;;5014939;28;20625;-75
2023/04/02 11:25:46;;;;;;;2.17;0.85;;;12.50;68.90;;;;;;5010761;28;20655;-74
2023/04/02 11:28:46;;;;;;;0.43;0.43;;;12.60;68.90;;;;;;4997254;28;20209;-75
2023/04/02 11:31:24;;;;;;;0.60;0.60;;;13.20;74.00;;;;;;4976804;28;20208;-75
2023/04/02 11:33:53;;;;;;;0.40;0.40;;;13.50;75.40;;;;;;5012622;28;20192;-75
2023/04/02 11:36:51;;;;;;;0.50;0.50;;;13.10;71.60;;;;;;5010759;28;20553;-74
2023/04/02 11:39:52;;;;;;;0.40;0.40;;;12.70;74.00;;;;;;4995672;28;20192;-75
2023/04/02 11:42:18;;;;;;;0.43;0.43;;;13.00;72.30;;;;;;4995511;28;20210;-75
2023/04/02 11:44:44;;;;;;;0.60;0.57;;;13.10;73.60;;;;;;4995546;28;20578;-75
2023/04/02 11:47:21;;;;;;;0.50;0.50;;;13.00;74.50;;;;;;4994621;28;20199;-75
2023/04/02 11:53:31;;;;;;;0.40;0.40;;;13.10;73.90;;;;;;5010514;28;20685;-77
2023/04/02 11:56:26;;;;;;;;;;;;;;;;;;;;;
2023/04/02 11:59:18;;;;;;;0.40;0.40;;;13.20;70.70;;;;;;5016947;28;20275;-76
2023/04/02 12:02:41;;;;;;;0.40;0.40;;;13.30;72.30;;;;;;5015465;28;20217;-76
2023/04/02 12:05:26;;;;;;;0.40;0.40;;;13.50;72.90;;;;;;4975177;28;20211;-75
2023/04/02 12:08:04;;;;;;;0.40;0.40;;;13.40;65.50;;;;;;5012273;28;20260;-76
2023/04/02 12:11:00;;;;;;;0.40;0.40;;;13.10;70.40;;;;;;5008239;28;20708;-75
2023/04/02 12:13:41;;;;;;;0.40;0.40;;;13.20;68.10;;;;;;4996029;28;20277;-75
2023/04/02 12:16:11;;;;;;;0.40;0.40;;;13.40;68.30;;;;;;4996418;28;20674;-76
2023/04/02 12:18:59;;;;;;;0.40;0.40;;;13.30;66.40;;;;;;4994151;28;20207;-74
2023/04/02 12:21:27;;;;;;;0.40;0.40;;;13.40;71.00;;;;;;4994673;28;20581;-75
2023/04/02 12:23:58;;;;;;;0.43;0.43;;;13.50;67.80;;;;;;4995260;28;20598;-76
2023/04/02 12:26:36;;;;;;;0.40;0.40;;;14.00;68.10;;;;;;5011157;28;20203;-75
2023/04/02 12:29:27;;;;;;;0.40;0.40;;;14.00;68.60;;;;;;5014517;28;20601;-76
2023/04/02 12:31:58;;;;;;;0.40;0.40;;;14.10;65.90;;;;;;4996647;28;20207;-76
2023/04/02 12:34:26;;;;;;;0.40;0.40;;;13.70;68.00;;;;;;4995264;28;20206;-76
2023/04/02 12:37:04;;;;;;;0.38;0.38;;;13.30;66.80;;;;;;5004967;28;20612;-76
2023/04/02 12:39:35;;;;;;;0.40;0.40;;;12.80;64.40;;;;;;4992912;28;20196;-75
2023/04/02 12:42:01;;;;;;;0.40;0.40;;;13.00;64.50;;;;;;4993487;28;20302;-76
2023/04/02 12:44:29;;;;;;;3.08;0.88;;;12.70;68.10;;;;;;5017831;28;20199;-75
2023/04/02 12:46:56;;;;;;;0.40;0.40;;;12.60;68.70;;;;;;5014014;28;20190;-76
2023/04/02 12:49:35;;;;;;;0.30;0.30;;;12.80;66.80;;;;;;5012429;28;20191;-76
2023/04/02 12:52:07;;;;;;;0.40;0.40;;;13.10;64.90;;;;;;5012731;28;20199;-75
2023/04/02 12:54:42;;;;;;;0.50;0.50;;;12.80;66.40;;;;;;5012357;28;20203;-75
2023/04/02 12:57:26;;;;;;;0.65;0.65;;;12.10;63.50;;;;;;5013939;28;20611;-75
2023/04/02 13:00:04;;;;;;;0.60;0.60;;;11.30;68.30;;;;;;5014056;28;20245;-76
2023/04/02 13:02:48;;;;;;;0.52;0.52;;;11.50;71.70;;;;;;5014556;28;20239;-76
2023/04/02 13:05:41;;;;;;;1.48;1.23;;;12.10;69.00;;;;;;5012773;28;20234;-76
2023/04/02 13:08:21;;;;;;;0.40;0.40;;;12.40;68.90;;;;;;5013495;28;20207;-76
2023/04/02 13:11:01;;;;;;;0.40;0.40;;;12.30;68.50;;;;;;5008166;28;20203;-76
2023/04/02 13:13:39;;;;;;;0.50;0.50;;;12.10;67.60;;;;;;4992655;28;20282;-77
2023/04/02 13:16:06;;;;;;;0.55;0.55;;;11.90;71.10;;;;;;4992686;28;20577;-77
2023/04/02 13:19:26;;;;;;;0.40;0.40;;;12.10;70.50;;;;;;4995711;28;20254;-77
2023/04/02 13:22:00;;;;;;;0.30;0.30;;;12.10;63.80;;;;;;4987161;28;20229;-76
2023/04/02 13:24:29;;;;;;;0.40;0.40;;;12.20;67.00;;;;;;4994087;28;20285;-76
2023/04/02 13:27:00;;;;;;;0.43;0.43;;;12.80;68.80;;;;;;5013679;28;20213;-76
2023/04/02 13:29:33;;;;;;;0.40;0.40;;;13.10;65.70;;;;;;5013033;28;20566;-77
2023/04/02 13:32:01;;;;;;;0.40;0.40;;;13.30;68.30;;;;;;4995642;28;20276;-77
2023/04/02 13:34:28;;;;;;;0.40;0.40;;;13.50;66.00;;;;;;4992022;28;20657;-75
2023/04/02 13:36:53;;;;;;;0.40;0.40;;;13.60;65.60;;;;;;4992167;28;20191;-76
2023/04/02 13:39:26;;;;;;;0.40;0.40;;;13.70;65.10;;;;;;4994059;28;20199;-72
2023/04/02 13:42:19;;;;;;;0.40;0.40;;;13.20;67.10;;;;;;5012242;28;20807;-76
2023/04/02 13:44:46;;;;;;;0.40;0.40;;;13.20;66.20;;;;;;5015177;28;20206;-76
2023/04/02 13:54:16;;;;;;;0.40;0.40;;;12.80;65.40;;;;;;4963480;28;20758;-78
2023/04/02 13:56:58;;;;;;;1.23;1.10;;;12.50;65.50;;;;;;4975345;28;20964;-77